Time;durP1;ratioP1;P1;durP2;ratioP2;P2;SDS_P1;SDS_P2;PMS_P1;PMS_P2;Temp;Humidity;BMP_temperature;BMP_pressure;BME280_temperature;BME280_humidity;BME280_pressure;Samples;Min_cycle;Max_cycle;Signal;HPM_P1;HPM_P2
2023/03/01 00:02:11;;;;;;;17.70;12.45;;;;;;;6.04;48.05;99093.03;5112257;28;20098;-45
2023/03/01 00:04:38;;;;;;;14.38;12.73;;;;;;;6.09;47.81;99093.34;5112239;28;20020;-45
2023/03/01 00:07:05;;;;;;;16.98;13.18;;;;;;;6.01;47.52;99095.94;5112100;28;20467;-45
2023/03/01 00:09:32;;;;;;;14.57;12.48;;;;;;;6.04;47.40;99098.25;5112212;28;20051;-45
2023/03/01 00:11:59;;;;;;;16.27;12.00;;;;;;;6.07;47.70;99094.50;5112156;28;20108;-45
2023/03/01 00:14:27;;;;;;;16.38;13.18;;;;;;;6.12;47.55;99092.22;5111411;28;20097;-45
2023/03/01 00:16:54;;;;;;;18.25;13.90;;;;;;;6.03;47.49;99096.59;5093810;28;20082;-45
2023/03/01 00:19:22;;;;;;;19.90;14.15;;;;;;;6.01;48.36;99093.34;5112057;28;20063;-44
2023/03/01 00:21:48;;;;;;;18.95;13.55;;;;;;;6.12;48.01;99093.03;5093635;28;20452;-45
2023/03/01 00:24:21;;;;;;;24.42;15.93;;;;;;;6.26;48.44;99090.75;5093699;28;20028;-46
2023/03/01 00:26:55;;;;;;;18.73;13.45;;;;;;;6.42;47.18;99089.94;5111911;28;20020;-46
2023/03/01 00:29:53;;;;;;;19.23;13.23;;;;;;;6.56;47.25;99090.13;5110502;28;20032;-46
2023/03/01 00:32:19;;;;;;;18.95;12.55;;;;;;;6.79;46.01;99082.41;5093547;28;20039;-46
2023/03/01 00:34:57;;;;;;;16.67;12.93;;;;;;;6.82;45.79;99081.25;5093653;28;20077;-47
2023/03/01 00:37:33;;;;;;;18.98;12.80;;;;;;;6.71;45.88;99085.03;5111882;28;20031;-47
2023/03/01 00:40:13;;;;;;;20.95;14.43;;;;;;;6.59;45.77;99100.19;5093901;28;20028;-46
2023/03/01 00:42:45;;;;;;;17.85;12.95;;;;;;;6.34;46.11;99093.38;5093587;28;20039;-45
2023/03/01 00:45:13;;;;;;;17.13;12.90;;;;;;;6.26;47.26;99085.53;5111796;28;20016;-45
2023/03/01 00:47:42;;;;;;;19.70;13.50;;;;;;;6.19;47.43;99085.38;5111942;28;20506;-46
2023/03/01 00:50:24;;;;;;;14.45;12.80;;;;;;;6.25;47.11;99083.94;5111827;28;20020;-46
2023/03/01 00:53:13;;;;;;;16.92;12.93;;;;;;;6.26;47.15;99075.13;5076614;28;20043;-45
2023/03/01 00:55:58;;;;;;;18.67;13.88;;;;;;;6.18;47.31;99083.78;5093351;28;20023;-46
2023/03/01 00:58:35;;;;;;;19.13;13.23;;;;;;;6.05;47.23;99070.38;5095857;28;20027;-47
2023/03/01 01:01:31;;;;;;;;;;;;;;;;;;;;;
2023/03/01 01:04:25;;;;;;;20.02;14.13;;;;;;;5.93;47.08;99062.84;5113804;28;20452;-45
2023/03/01 01:06:51;;;;;;;21.27;15.73;;;;;;;5.90;47.67;99059.78;5115346;28;20042;-45
2023/03/01 01:09:36;;;;;;;25.83;14.23;;;;;;;6.02;48.11;99074.16;5096946;28;20114;-45
2023/03/01 01:12:07;;;;;;;18.42;16.15;;;;;;;6.03;47.17;99077.56;5115311;28;20023;-46
2023/03/01 01:14:51;;;;;;;16.00;12.85;;;;;;;5.97;47.49;99068.59;5092920;28;20413;-46
2023/03/01 01:17:18;;;;;;;17.38;13.23;;;;;;;6.02;48.14;99061.13;5094695;28;20036;-46
2023/03/01 01:20:02;;;;;;;22.17;14.25;;;;;;;6.11;47.87;99059.31;5088761;28;20084;-46
2023/03/01 01:22:37;;;;;;;21.55;14.45;;;;;;;6.26;47.49;99067.28;5094779;28;20032;-45
2023/03/01 01:25:24;;;;;;;20.08;13.57;;;;;;;6.20;47.19;99060.97;5094539;28;20393;-46
2023/03/01 01:27:51;;;;;;;16.20;13.05;;;;;;;6.06;46.91;99059.81;5094379;28;20472;-45
2023/03/01 01:30:21;;;;;;;16.92;13.90;;;;;;;5.94;46.83;99061.06;5084911;28;20035;-45
2023/03/01 01:32:51;;;;;;;17.20;12.45;;;;;;;5.86;47.01;99054.06;5094439;28;20028;-47
2023/03/01 01:35:22;;;;;;;23.50;13.68;;;;;;;5.82;46.96;99054.56;5084787;28;20028;-45
2023/03/01 01:37:49;;;;;;;17.45;12.82;;;;;;;5.82;47.69;99054.56;5094467;28;20024;-45
2023/03/01 01:40:18;;;;;;;16.98;13.60;;;;;;;5.80;47.79;99052.09;5094346;28;20013;-45
2023/03/01 01:42:45;;;;;;;15.10;12.68;;;;;;;5.67;48.63;99049.94;5094354;28;20024;-45
2023/03/01 01:45:41;;;;;;;17.75;14.00;;;;;;;5.68;47.20;99050.78;5094253;28;20020;-45
2023/03/01 01:48:40;;;;;;;18.33;13.02;;;;;;;5.55;47.96;99044.25;5060002;28;20036;-45
2023/03/01 01:51:48;;;;;;;17.35;11.80;;;;;;;5.75;48.55;99042.16;5091328;28;20139;-46
2023/03/01 01:54:56;;;;;;;16.23;12.88;;;;;;;5.76;47.70;99028.16;5092333;28;20143;-46
2023/03/01 01:58:05;;;;;;;44.38;25.05;;;;;;;5.84;47.61;99027.38;5093884;28;20024;-46
2023/03/01 02:00:40;;;;;;;35.75;23.13;;;;;;;5.84;47.99;99023.94;5093821;28;20034;-45
2023/03/01 02:03:46;;;;;;;34.97;22.73;;;;;;;5.57;47.90;99021.47;5091102;28;20103;-46
2023/03/01 02:07:16;;;;;;;16.52;14.18;;;;;;;5.33;47.60;99024.81;5091921;28;20051;-47
2023/03/01 02:09:58;;;;;;;22.70;14.23;;;;;;;5.21;48.64;99028.66;5086699;28;20456;-46
2023/03/01 02:12:38;;;;;;;19.38;14.38;;;;;;;5.14;49.25;99027.69;5092462;28;20028;-46
2023/03/01 02:15:05;;;;;;;20.70;13.50;;;;;;;5.22;48.16;99030.31;5091815;28;20086;-46
2023/03/01 02:17:52;;;;;;;17.77;14.07;;;;;;;4.97;48.42;99030.22;5085945;28;20040;-47
2023/03/01 02:20:46;;;;;;;19.33;13.52;;;;;;;4.99;49.17;99017.88;5093416;28;20032;-46
2023/03/01 02:23:25;;;;;;;24.10;14.18;;;;;;;5.06;48.85;99006.84;5093794;28;20032;-47
2023/03/01 02:26:36;;;;;;;16.90;14.07;;;;;;;5.02;49.00;99008.94;5093426;28;20393;-47
2023/03/01 02:29:05;;;;;;;16.35;14.10;;;;;;;4.92;48.85;99009.03;5093317;28;20024;-45
2023/03/01 02:32:10;;;;;;;18.33;13.30;;;;;;;5.05;49.46;99007.78;5091842;28;20491;-46
2023/03/01 02:34:47;;;;;;;18.90;13.93;;;;;;;4.82;48.58;99004.94;5086332;28;20028;-47
2023/03/01 02:37:40;;;;;;;16.80;14.32;;;;;;;4.73;49.37;98998.91;5093131;28;20440;-45
2023/03/01 02:40:21;;;;;;;17.92;14.02;;;;;;;4.82;49.83;98990.16;5093217;28;20095;-47
2023/03/01 02:43:10;;;;;;;17.45;14.75;;;;;;;4.75;49.00;98986.56;5093164;28;20501;-46
2023/03/01 02:49:01;;;;;;;19.23;14.02;;;;;;;4.75;49.33;98982.16;5092906;28;20063;-45
2023/03/01 02:52:08;;;;;;;16.25;13.73;;;;;;;4.93;49.57;98973.44;5084622;28;20047;-46
2023/03/01 02:54:57;;;;;;;34.33;17.38;;;;;;;5.12;49.45;98967.19;5092890;28;20032;-45
2023/03/01 02:57:35;;;;;;;18.42;13.45;;;;;;;5.26;49.06;98969.16;5092890;28;20520;-46
2023/03/01 03:03:42;;;;;;;31.00;27.05;;;;;;;5.33;49.54;98961.53;5085263;28;20566;-47
2023/03/01 03:06:29;;;;;;;;;;;;;;;5.48;48.64;98972.16;5093130;28;20047;-46
2023/03/01 03:09:14;;;;;;;14.00;12.33;;;;;;;5.39;48.33;98966.09;5092788;28;20334;-46
2023/03/01 03:11:52;;;;;;;23.08;14.10;;;;;;;5.13;48.85;98961.00;5092458;28;20577;-47
2023/03/01 03:14:36;;;;;;;20.15;14.40;;;;;;;4.96;49.40;98960.13;5092424;28;20056;-47
2023/03/01 03:17:24;;;;;;;19.48;13.93;;;;;;;5.11;48.80;98957.75;5090464;28;20043;-45
2023/03/01 03:20:10;;;;;;;24.05;17.02;;;;;;;5.25;49.52;98951.09;5074083;28;20581;-46
2023/03/01 03:23:09;;;;;;;25.55;14.50;;;;;;;5.37;49.05;98957.63;5091691;28;20097;-46
2023/03/01 03:25:50;;;;;;;23.40;13.90;;;;;;;5.35;49.06;98955.22;5074196;28;20493;-47
2023/03/01 03:28:35;;;;;;;16.83;14.18;;;;;;;5.31;48.93;98951.31;5073966;28;20020;-46
2023/03/01 03:31:11;;;;;;;20.08;15.82;;;;;;;5.36;48.29;98943.81;5074097;28;20496;-47
2023/03/01 03:33:54;;;;;;;20.15;13.85;;;;;;;5.38;48.75;98941.06;5092197;28;20067;-46
2023/03/01 03:36:29;;;;;;;20.42;13.88;;;;;;;5.37;48.49;98942.84;5092095;28;20024;-46
2023/03/01 03:39:16;;;;;;;21.20;14.13;;;;;;;5.26;48.71;98943.16;5074140;28;20046;-45
2023/03/01 03:41:58;;;;;;;17.40;13.82;;;;;;;4.96;48.59;98942.75;5092043;28;20032;-46
2023/03/01 03:44:38;;;;;;;18.73;15.15;;;;;;;4.93;48.82;98942.25;5092148;28;20039;-47
2023/03/01 03:47:09;;;;;;;17.33;14.55;;;;;;;4.75;49.40;98942.38;5073960;28;20024;-46
2023/03/01 03:49:44;;;;;;;21.77;15.07;;;;;;;4.65;49.12;98936.44;5092081;28;20035;-46
2023/03/01 03:52:28;;;;;;;17.85;14.48;;;;;;;4.26;48.94;98942.91;5091905;28;20198;-45
2023/03/01 03:55:30;;;;;;;17.08;15.23;;;;;;;3.88;50.21;98944.91;5091935;28;20551;-47
2023/03/01 03:58:10;;;;;;;18.58;13.38;;;;;;;3.94;50.83;98938.31;5090845;28;20047;-46
2023/03/01 04:00:52;;;;;;;19.42;14.32;;;;;;;4.18;50.36;98942.84;5073735;28;20024;-46
2023/03/01 04:03:35;;;;;;;22.40;15.48;;;;;;;4.06;50.18;98938.88;5073723;28;20031;-46
2023/03/01 04:06:05;;;;;;;19.55;14.75;;;;;;;4.00;50.62;98935.94;5091790;28;20500;-45
2023/03/01 04:08:41;;;;;;;26.23;14.95;;;;;;;4.14;51.27;98939.75;5091671;28;20389;-47
2023/03/01 04:14:10;;;;;;;23.50;15.75;;;;;;;4.12;50.76;98943.47;5091797;28;20073;-46
2023/03/01 04:16:52;;;;;;;20.27;15.20;;;;;;;4.06;50.97;98941.47;5091522;28;20559;-46
2023/03/01 04:19:43;;;;;;;20.75;15.95;;;;;;;3.99;51.39;98933.50;5073608;28;20198;-45
2023/03/01 04:22:21;;;;;;;18.00;14.52;;;;;;;4.26;51.00;98924.72;5090008;28;20390;-45
2023/03/01 04:25:05;;;;;;;18.10;15.07;;;;;;;4.49;50.33;98929.41;5073527;28;20385;-46
2023/03/01 04:27:57;;;;;;;20.83;15.77;;;;;;;4.54;49.94;98930.56;5091307;28;20024;-45
2023/03/01 04:30:43;;;;;;;18.63;15.10;;;;;;;4.60;50.27;98932.53;5091643;28;20401;-45
2023/03/01 04:33:22;;;;;;;;;;;;;;;4.64;49.71;98924.44;5094267;28;20032;-47
2023/03/01 04:35:49;;;;;;;18.92;15.45;;;;;;;4.72;49.80;98922.66;5095566;28;19933;-45
2023/03/01 04:38:26;;;;;;;20.80;14.82;;;;;;;4.73;49.85;98920.91;5077352;28;20040;-47
2023/03/01 04:41:15;;;;;;;21.60;15.88;;;;;;;4.69;49.08;98922.16;5077193;28;20027;-45
2023/03/01 04:43:49;;;;;;;18.90;15.82;;;;;;;4.65;49.43;98926.03;5077239;28;20035;-45
2023/03/01 04:46:33;;;;;;;22.63;15.73;;;;;;;4.47;49.80;98929.56;5077136;28;20107;-45
2023/03/01 04:49:09;;;;;;;23.80;18.08;;;;;;;4.53;50.08;98925.53;5095245;28;20067;-45
2023/03/01 04:51:52;;;;;;;23.10;16.42;;;;;;;4.49;50.48;98921.63;5095098;28;20020;-45
2023/03/01 04:54:33;;;;;;;18.95;14.80;;;;;;;4.66;49.86;98919.88;5077051;28;20032;-46
2023/03/01 04:57:10;;;;;;;22.00;16.73;;;;;;;4.59;49.97;98922.31;5076863;28;20020;-47
2023/03/01 04:59:40;;;;;;;20.92;15.20;;;;;;;4.53;50.00;98926.34;5095139;28;20020;-46
2023/03/01 05:02:11;;;;;;;19.05;16.02;;;;;;;4.32;49.60;98923.28;5076822;28;20112;-45
2023/03/01 05:04:43;;;;;;;23.80;16.48;;;;;;;4.21;50.60;98926.97;5076821;28;20035;-45
2023/03/01 05:07:12;;;;;;;18.55;16.33;;;;;;;4.43;50.32;98919.59;5076706;28;20017;-46
2023/03/01 05:09:46;;;;;;;20.88;17.23;;;;;;;4.36;51.21;98916.81;5095016;28;20052;-45
2023/03/01 05:12:15;;;;;;;19.02;15.25;;;;;;;4.43;50.65;98915.25;5060094;28;20027;-47
2023/03/01 05:14:46;;;;;;;23.23;16.42;;;;;;;4.59;50.50;98917.91;5095246;28;20031;-46
2023/03/01 05:17:18;;;;;;;29.65;17.05;;;;;;;4.64;50.46;98921.84;5075960;28;20036;-45
2023/03/01 05:19:46;;;;;;;25.50;21.63;;;;;;;4.79;50.44;98917.69;5094844;28;20103;-46
2023/03/01 05:22:26;;;;;;;20.63;15.77;;;;;;;4.87;49.00;98917.69;5094672;28;20024;-47
2023/03/01 05:24:53;;;;;;;20.85;16.52;;;;;;;4.88;49.37;98914.13;5094688;28;20131;-45
2023/03/01 05:27:22;;;;;;;36.53;17.10;;;;;;;4.79;49.38;98908.09;5094094;28;20028;-45
2023/03/01 05:32:55;;;;;;;27.30;18.05;;;;;;;4.87;49.74;98912.50;5079507;28;20043;-47
2023/03/01 05:35:22;;;;;;;21.17;16.63;;;;;;;4.78;49.70;98909.03;5094387;28;20039;-45
2023/03/01 05:37:50;;;;;;;24.52;16.95;;;;;;;4.60;49.68;98910.91;5094450;28;20027;-45
2023/03/01 05:40:19;;;;;;;18.98;15.80;;;;;;;4.46;50.06;98907.13;5076139;28;20020;-45
2023/03/01 05:42:49;;;;;;;22.83;17.60;;;;;;;4.54;50.48;98898.56;5094277;28;20031;-45
2023/03/01 05:45:18;;;;;;;20.75;17.15;;;;;;;4.64;50.47;98899.25;5094248;28;20024;-46
2023/03/01 05:47:47;;;;;;;23.90;16.48;;;;;;;4.75;50.08;98904.16;5094187;28;20032;-45
2023/03/01 05:50:20;;;;;;;25.58;17.52;;;;;;;4.90;49.82;98901.75;5094205;28;20213;-45
2023/03/01 05:52:50;;;;;;;19.08;15.15;;;;;;;4.93;49.63;98908.44;5094432;28;20031;-46
2023/03/01 05:55:19;;;;;;;23.58;17.33;;;;;;;4.73;49.31;98907.91;5075916;28;20016;-45
2023/03/01 05:57:49;;;;;;;23.83;16.50;;;;;;;4.62;49.81;98895.97;5094074;28;20034;-45
2023/03/01 06:00:19;;;;;;;19.30;16.23;;;;;;;4.50;49.92;98907.63;5094013;28;20424;-45
2023/03/01 06:02:46;;;;;;;21.75;15.70;;;;;;;4.49;49.57;98906.81;5075697;28;20027;-45
2023/03/01 06:05:14;;;;;;;22.52;14.90;;;;;;;4.62;49.56;98901.19;5093846;28;20027;-46
2023/03/01 06:07:43;;;;;;;20.95;16.02;;;;;;;4.84;49.40;98907.59;5093829;28;20110;-45
2023/03/01 06:10:12;;;;;;;22.10;16.00;;;;;;;4.98;48.76;98906.97;5093840;28;20073;-45
2023/03/01 06:12:42;;;;;;;32.92;18.08;;;;;;;5.14;48.65;98908.00;5075677;28;20020;-45
2023/03/01 06:15:16;;;;;;;24.92;16.30;;;;;;;4.94;48.13;98916.06;5096461;28;20533;-45
2023/03/01 06:17:45;;;;;;;20.15;17.20;;;;;;;4.66;48.18;98917.28;5096065;28;20023;-45
2023/03/01 06:20:22;;;;;;;32.95;18.25;;;;;;;4.40;49.01;98916.34;5113955;28;20064;-45
2023/03/01 06:22:55;;;;;;;22.15;16.48;;;;;;;4.38;49.07;98910.50;5095658;28;20031;-45
2023/03/01 06:25:24;;;;;;;30.73;18.40;;;;;;;4.40;49.54;98912.94;5095499;28;20126;-45
2023/03/01 06:27:52;;;;;;;26.73;17.58;;;;;;;4.62;50.39;98908.97;5113737;28;20043;-45
2023/03/01 06:30:21;;;;;;;30.83;20.63;;;;;;;4.80;49.60;98911.50;5095411;28;20127;-46
2023/03/01 06:33:08;;;;;;;35.03;21.70;;;;;;;4.81;49.48;98920.94;5095464;28;20066;-45
2023/03/01 06:35:35;;;;;;;43.35;30.77;;;;;;;4.87;49.59;98916.88;5113644;28;20119;-45
2023/03/01 06:38:18;;;;;;;28.73;22.35;;;;;;;4.97;50.33;98913.19;5095561;28;20028;-45
2023/03/01 06:40:57;;;;;;;33.10;24.13;;;;;;;4.93;49.69;98914.47;5113497;28;20023;-46
2023/03/01 06:43:40;;;;;;;56.92;31.80;;;;;;;4.90;49.69;98917.38;5113582;28;20016;-47
2023/03/01 06:46:22;;;;;;;36.65;23.85;;;;;;;4.86;49.42;98913.44;5095075;28;20030;-47
2023/03/01 06:49:07;;;;;;;59.22;45.88;;;;;;;5.02;49.67;98914.50;5095040;28;20443;-46
2023/03/01 06:51:40;;;;;;;36.25;22.73;;;;;;;4.97;48.93;98922.75;5107392;28;20035;-45
2023/03/01 06:54:17;;;;;;;30.77;19.90;;;;;;;5.02;49.05;98912.69;5113252;28;20049;-47
2023/03/01 06:56:47;;;;;;;25.83;20.40;;;;;;;5.03;48.59;98909.13;5112791;28;20538;-46
2023/03/01 06:59:14;;;;;;;24.27;18.08;;;;;;;5.07;48.59;98918.25;5113178;28;20027;-45
2023/03/01 07:01:41;;;;;;;27.92;18.33;;;;;;;5.01;47.81;98913.69;5113139;28;20489;-45
2023/03/01 07:04:12;;;;;;;22.45;16.00;;;;;;;5.14;48.05;98921.00;5113148;28;20106;-45
2023/03/01 07:06:39;;;;;;;22.63;17.95;;;;;;;5.21;47.81;98919.38;5113089;28;20525;-46
2023/03/01 07:09:06;;;;;;;39.58;19.40;;;;;;;5.24;48.66;98923.47;5113182;28;20054;-45
2023/03/01 07:11:33;;;;;;;28.75;19.50;;;;;;;5.28;48.45;98920.38;5113038;28;20015;-46
2023/03/01 07:14:00;;;;;;;34.30;19.02;;;;;;;5.26;47.55;98927.53;5112969;28;20030;-45
2023/03/01 07:16:29;;;;;;;29.35;18.60;;;;;;;5.23;47.22;98922.63;5090930;28;20070;-45
2023/03/01 07:18:56;;;;;;;25.90;19.73;;;;;;;5.14;48.05;98921.00;5092529;28;20028;-45
2023/03/01 07:21:23;;;;;;;33.45;25.58;;;;;;;5.29;47.63;98922.03;5092470;28;20043;-45
2023/03/01 07:23:51;;;;;;;31.95;23.90;;;;;;;5.55;47.14;98916.69;5092426;28;20094;-45
2023/03/01 07:26:18;;;;;;;40.40;25.00;;;;;;;5.58;47.28;98905.13;5092401;28;20069;-45
2023/03/01 07:28:45;;;;;;;32.60;27.90;;;;;;;5.66;47.20;98904.31;5092157;28;20068;-45
2023/03/01 07:31:12;;;;;;;31.80;23.88;;;;;;;5.81;46.94;98897.44;5092297;28;20032;-45
2023/03/01 07:33:39;;;;;;;51.63;29.88;;;;;;;5.86;46.39;98912.59;5092262;28;20419;-45
2023/03/01 07:36:07;;;;;;;40.33;31.50;;;;;;;5.92;45.95;98912.75;5092169;28;20024;-45
2023/03/01 07:38:35;;;;;;;36.47;27.98;;;;;;;6.00;46.18;98914.56;5092491;28;20430;-45
2023/03/01 07:41:03;;;;;;;36.13;25.05;;;;;;;5.98;45.54;98906.91;5092062;28;20065;-45
2023/03/01 07:43:34;;;;;;;46.00;23.55;;;;;;;5.62;45.72;98906.44;5091666;28;20028;-45
2023/03/01 07:46:04;;;;;;;26.52;20.17;;;;;;;5.40;46.75;98913.88;5092024;28;20088;-45
2023/03/01 07:48:35;;;;;;;37.42;21.58;;;;;;;5.39;47.27;98912.28;5091913;28;20103;-45
2023/03/01 07:51:05;;;;;;;28.70;18.63;;;;;;;5.49;47.59;98913.91;5092031;28;20042;-44
2023/03/01 07:53:34;;;;;;;23.90;19.23;;;;;;;5.40;47.19;98910.47;5092052;28;20024;-44
2023/03/01 07:56:12;;;;;;;28.95;19.65;;;;;;;5.39;47.00;98899.28;5091739;28;20514;-44
2023/03/01 07:58:42;;;;;;;28.73;19.73;;;;;;;5.31;47.24;98909.66;5082865;28;20081;-45
2023/03/01 08:01:22;;;;;;;28.23;20.02;;;;;;;5.37;47.09;98902.97;5090719;28;20021;-47
2023/03/01 08:04:09;;;;;;;29.85;19.15;;;;;;;5.39;47.05;98903.63;5085986;28;20044;-45
2023/03/01 08:06:43;;;;;;;28.38;19.38;;;;;;;5.38;46.45;98904.63;5091147;28;20059;-45
2023/03/01 08:09:12;;;;;;;27.20;19.63;;;;;;;5.44;46.90;98897.97;5089254;28;20090;-45
2023/03/01 08:11:41;;;;;;;24.42;18.25;;;;;;;5.56;46.90;98889.66;5091704;28;20017;-45
2023/03/01 08:14:10;;;;;;;27.27;19.08;;;;;;;5.85;45.96;98895.34;5091717;28;20103;-44
2023/03/01 08:16:57;;;;;;;35.88;19.88;;;;;;;6.05;45.16;98891.44;5105945;28;20086;-45
2023/03/01 08:19:33;;;;;;;25.05;18.30;;;;;;;6.13;45.51;98894.00;5112160;28;20031;-46
2023/03/01 08:22:12;;;;;;;34.60;19.45;;;;;;;6.26;44.80;98890.06;5093712;28;20032;-46
2023/03/01 08:24:41;;;;;;;32.85;18.73;;;;;;;6.20;45.17;98894.97;5110750;28;20549;-45
2023/03/01 08:27:17;;;;;;;32.45;20.48;;;;;;;6.19;45.19;98882.13;5111907;28;20032;-46
2023/03/01 08:29:44;;;;;;;30.40;19.83;;;;;;;6.22;45.20;98870.53;5076897;28;20035;-45
2023/03/01 08:32:11;;;;;;;27.10;18.58;;;;;;;6.43;44.80;98877.81;5111876;28;20458;-45
2023/03/01 08:34:39;;;;;;;24.88;19.35;;;;;;;6.47;44.43;98882.50;5111974;28;20020;-45
2023/03/01 08:37:10;;;;;;;28.17;19.65;;;;;;;6.42;44.53;98884.00;5077749;28;20032;-45
2023/03/01 08:39:47;;;;;;;30.75;20.13;;;;;;;6.48;44.46;98878.94;5111921;28;20028;-46
2023/03/01 08:42:22;;;;;;;69.45;22.45;;;;;;;6.62;44.27;98885.25;5093743;28;20030;-47
2023/03/01 08:44:52;;;;;;;85.22;21.98;;;;;;;6.64;44.32;98883.28;5093614;28;20044;-46
2023/03/01 08:47:31;;;;;;;72.93;21.13;;;;;;;6.61;44.89;98873.16;5111159;28;20486;-46
2023/03/01 08:50:11;;;;;;;124.03;26.10;;;;;;;6.73;43.99;98869.19;5111880;28;20493;-46
2023/03/01 08:52:41;;;;;;;111.15;23.63;;;;;;;6.96;44.08;98874.47;5093510;28;20159;-45
2023/03/01 08:55:08;;;;;;;105.68;24.98;;;;;;;7.02;44.09;98874.75;5093435;28;20031;-45
2023/03/01 08:57:35;;;;;;;68.18;22.52;;;;;;;6.84;43.73;98878.44;5111699;28;20055;-45
2023/03/01 09:00:15;;;;;;;58.80;22.42;;;;;;;6.65;43.85;98871.84;5111682;28;20027;-45
2023/03/01 09:02:43;;;;;;;41.40;20.58;;;;;;;6.67;44.46;98871.69;5111757;28;20518;-45
2023/03/01 09:05:10;;;;;;;45.80;21.88;;;;;;;6.58;44.25;98876.13;5111670;28;20022;-45
2023/03/01 09:08:16;;;;;;;30.83;19.67;;;;;;;6.39;45.36;98877.34;5093787;28;20028;-45
2023/03/01 09:11:02;;;;;;;30.25;19.50;;;;;;;6.61;45.26;98875.78;5111533;28;20023;-45
2023/03/01 09:13:48;;;;;;;28.35;19.67;;;;;;;6.91;44.69;98873.34;5093453;28;20038;-47
2023/03/01 09:16:26;;;;;;;28.05;19.25;;;;;;;7.00;44.16;98867.09;5108272;28;20513;-46
2023/03/01 09:19:08;;;;;;;36.45;19.50;;;;;;;7.02;44.06;98866.91;5094839;28;20039;-45
2023/03/01 09:21:34;;;;;;;31.02;19.25;;;;;;;7.09;43.57;98871.28;5115042;28;20033;-46
2023/03/01 09:24:02;;;;;;;30.23;20.02;;;;;;;6.99;43.57;98866.28;5096843;28;20032;-45
2023/03/01 09:26:29;;;;;;;56.95;23.13;;;;;;;7.02;43.52;98861.69;5115063;28;20024;-45
2023/03/01 09:28:57;;;;;;;109.22;23.75;;;;;;;6.96;43.53;98865.81;5114938;28;20056;-45
2023/03/01 09:31:25;;;;;;;146.00;28.35;;;;;;;6.89;44.09;98873.53;5115212;28;20034;-45
2023/03/01 09:33:54;;;;;;;72.85;22.05;;;;;;;6.95;43.64;98880.66;5114948;28;20549;-46
2023/03/01 09:36:25;;;;;;;93.70;23.17;;;;;;;6.94;43.83;98875.59;5114868;28;20030;-45
2023/03/01 09:38:53;;;;;;;95.43;24.02;;;;;;;6.98;43.70;98875.09;5114800;28;20114;-45
2023/03/01 09:42:01;;;;;;;129.05;26.80;;;;;;;7.06;43.46;98883.84;5114705;28;20030;-45
2023/03/01 09:45:40;;;;;;;122.03;26.42;;;;;;;7.36;44.47;98874.34;5114613;28;20042;-47
2023/03/01 09:48:31;;;;;;;69.13;23.17;;;;;;;7.23;43.33;98877.56;5114497;28;20033;-45
2023/03/01 09:51:44;;;;;;;94.80;24.38;;;;;;;7.17;43.77;98873.84;5096265;28;20133;-46
2023/03/01 09:54:11;;;;;;;49.45;21.80;;;;;;;7.26;43.61;98869.34;5114475;28;20035;-45
2023/03/01 09:57:34;;;;;;;72.25;22.08;;;;;;;7.43;43.70;98866.66;5096149;28;20027;-45
2023/03/01 10:00:24;;;;;;;77.18;22.25;;;;;;;7.52;43.06;98865.56;5080092;28;20071;-45
2023/03/01 10:03:16;;;;;;;90.10;25.80;;;;;;;7.62;43.38;98866.13;5114574;28;20119;-45
2023/03/01 10:06:06;;;;;;;52.28;22.52;;;;;;;7.72;42.95;98853.63;5095962;28;20043;-45
2023/03/01 10:09:00;;;;;;;31.02;21.65;;;;;;;7.70;42.95;98857.44;5114447;28;20039;-45
2023/03/01 10:11:44;;;;;;;53.88;25.80;;;;;;;7.66;42.77;98849.13;5114306;28;20024;-45
2023/03/01 10:14:29;;;;;;;53.35;27.90;;;;;;;7.78;42.99;98846.91;5114229;28;20074;-45
2023/03/01 10:17:06;;;;;;;32.25;21.92;;;;;;;7.85;42.70;98849.59;5113806;28;20501;-45
2023/03/01 10:19:45;;;;;;;35.88;24.65;;;;;;;7.83;42.14;98849.81;5114047;28;20024;-45
2023/03/01 10:22:52;;;;;;;36.65;26.60;;;;;;;7.89;42.88;98856.13;5113935;28;20031;-45
2023/03/01 10:25:42;;;;;;;31.98;21.25;;;;;;;8.21;41.81;98852.34;5114035;28;20055;-45
2023/03/01 10:28:28;;;;;;;60.78;38.78;;;;;;;8.25;41.62;98840.53;5095571;28;20059;-45
2023/03/01 10:30:54;;;;;;;;;;;;;;;8.12;41.89;98842.97;5095085;28;20020;-45
2023/03/01 10:33:44;;;;;;;60.30;22.65;;;;;;;8.11;41.87;98850.00;5095483;28;19921;-46
2023/03/01 10:36:13;;;;;;;44.38;22.05;;;;;;;8.17;41.41;98845.88;5113672;28;20408;-45
2023/03/01 10:38:57;;;;;;;58.17;27.55;;;;;;;8.31;41.72;98839.81;5113693;28;20023;-45
2023/03/01 10:42:00;;;;;;;43.67;30.77;;;;;;;8.50;41.47;98843.69;5113831;28;20405;-47
2023/03/01 10:44:48;;;;;;;100.82;73.20;;;;;;;8.59;41.71;98837.38;5113503;28;20076;-46
2023/03/01 10:47:24;;;;;;;58.63;37.40;;;;;;;8.54;40.97;98831.06;5095109;28;20036;-45
2023/03/01 10:50:29;;;;;;;;;;;;;;;8.36;41.34;98834.81;5113780;28;20115;-47
2023/03/01 10:53:05;;;;;;;39.30;28.67;;;;;;;8.21;40.95;98820.97;5113365;28;19965;-46
2023/03/01 10:55:45;;;;;;;54.17;29.65;;;;;;;8.48;41.29;98816.91;5095090;28;20027;-47
2023/03/01 10:58:22;;;;;;;56.03;34.30;;;;;;;8.67;41.28;98817.31;5113314;28;20031;-46
2023/03/01 11:01:16;;;;;;;59.47;45.22;;;;;;;8.85;40.67;98819.50;5094839;28;20039;-46
2023/03/01 11:04:17;;;;;;;96.25;64.88;;;;;;;9.10;40.10;98807.69;5113262;28;20023;-47
2023/03/01 11:07:19;;;;;;;51.10;34.42;;;;;;;9.15;39.95;98799.25;5113136;28;20031;-47
2023/03/01 11:09:58;;;;;;;52.45;43.20;;;;;;;9.13;40.29;98806.50;5112940;28;20023;-47
2023/03/01 11:12:26;;;;;;;37.97;33.53;;;;;;;9.10;39.85;98806.88;5094694;28;20161;-46
2023/03/01 11:14:55;;;;;;;38.45;34.50;;;;;;;9.15;39.77;98802.69;5113108;28;20111;-45
2023/03/01 11:17:33;;;;;;;50.58;34.30;;;;;;;9.27;39.76;98796.94;5090795;28;20059;-45
2023/03/01 11:20:32;;;;;;;34.45;27.40;;;;;;;9.42;39.70;98796.84;5092509;28;20067;-45
2023/03/01 11:23:25;;;;;;;32.20;23.75;;;;;;;9.28;39.97;98785.47;5086381;28;20032;-45
2023/03/01 11:25:59;;;;;;;30.38;22.90;;;;;;;9.41;39.90;98775.09;5092397;28;20035;-45
2023/03/01 11:28:29;;;;;;;30.63;22.30;;;;;;;9.53;39.58;98780.63;5092346;28;20020;-45
2023/03/01 11:31:36;;;;;;;41.20;23.98;;;;;;;9.59;39.84;98772.00;5092399;28;20047;-45
2023/03/01 11:34:45;;;;;;;38.90;25.92;;;;;;;9.66;39.86;98766.78;5092287;28;20024;-45
2023/03/01 11:37:31;;;;;;;34.47;24.25;;;;;;;9.90;39.90;98762.88;5060999;28;20114;-45
2023/03/01 11:40:16;;;;;;;32.42;24.23;;;;;;;10.08;39.16;98767.63;5092486;28;20424;-45
2023/03/01 11:43:28;;;;;;;31.10;21.83;;;;;;;10.11;38.24;98756.75;5086197;28;20567;-46
2023/03/01 11:46:19;;;;;;;30.58;22.63;;;;;;;10.05;37.83;98755.72;5091959;28;20032;-46
2023/03/01 11:49:00;;;;;;;25.20;22.50;;;;;;;10.01;38.35;98751.88;5091943;28;20069;-45
2023/03/01 11:52:09;;;;;;;27.80;22.40;;;;;;;10.08;37.87;98741.41;5084906;28;20375;-46
2023/03/01 11:55:13;;;;;;;28.90;22.42;;;;;;;9.93;38.47;98742.34;5084868;28;20027;-46
2023/03/01 11:58:08;;;;;;;24.63;21.83;;;;;;;10.02;38.30;98736.94;5092019;28;20428;-46
2023/03/01 12:01:04;;;;;;;27.90;23.85;;;;;;;9.92;39.41;98732.06;5091901;28;20032;-46
2023/03/01 12:03:58;;;;;;;27.02;22.42;;;;;;;9.75;38.52;98729.75;5084121;28;20028;-46
2023/03/01 12:06:56;;;;;;;34.75;23.63;;;;;;;9.51;39.32;98727.59;5091862;28;20039;-46
2023/03/01 12:09:48;;;;;;;26.50;22.90;;;;;;;9.50;38.99;98726.81;5084102;28;20044;-45
2023/03/01 12:12:38;;;;;;;46.28;24.83;;;;;;;9.53;39.16;98726.41;5089972;28;20036;-46
2023/03/01 12:15:57;;;;;;;33.00;23.10;;;;;;;9.52;39.04;98726.63;5091455;28;20025;-46
2023/03/01 12:18:53;;;;;;;31.40;22.02;;;;;;;9.48;39.02;98720.16;5068055;28;20085;-46
2023/03/01 12:22:11;;;;;;;30.38;23.60;;;;;;;9.51;38.90;98714.50;5082253;28;20028;-46
2023/03/01 12:25:15;;;;;;;31.92;25.60;;;;;;;9.04;39.65;98714.19;5088960;28;20107;-46
2023/03/01 12:28:04;;;;;;;31.92;24.67;;;;;;;8.96;39.82;98722.19;5091668;28;20035;-46
2023/03/01 12:30:38;;;;;;;28.13;22.55;;;;;;;9.02;39.67;98723.25;5083784;28;20028;-46
2023/03/01 12:33:15;;;;;;;26.13;21.98;;;;;;;9.08;39.92;98712.00;5092267;28;20040;-47
2023/03/01 12:35:52;;;;;;;28.08;23.73;;;;;;;9.33;39.85;98707.94;5091559;28;20103;-46
2023/03/01 12:38:40;;;;;;;31.13;24.48;;;;;;;9.44;39.55;98703.16;5091613;28;20028;-46